Time;durP1;ratioP1;P1;durP2;ratioP2;P2;SDS_P1;SDS_P2;PMS_P1;PMS_P2;Temp;Humidity;BMP_temperature;BMP_pressure;BME280_temperature;BME280_humidity;BME280_pressure;Samples;Min_cycle;Max_cycle;Signal;HPM_P1;HPM_P2
2023/12/21 00:02:07;;;;;;;32.08;3.95;;;9.90;99.90;;;;;;5046934;28;20040;-71
2023/12/21 00:04:33;;;;;;;25.45;3.40;;;9.90;99.90;;;;;;5045950;28;20506;-71
2023/12/21 00:07:00;;;;;;;26.50;3.47;;;10.00;99.90;;;;;;5046108;28;20048;-71
2023/12/21 00:09:26;;;;;;;26.90;3.00;;;9.80;99.90;;;;;;5029191;28;20040;-71
2023/12/21 00:11:52;;;;;;;27.63;3.45;;;10.00;99.90;;;;;;5031781;28;20051;-71
2023/12/21 00:14:17;;;;;;;20.75;2.53;;;10.00;99.90;;;;;;5038096;28;20350;-71
2023/12/21 00:16:43;;;;;;;30.83;3.38;;;9.70;99.90;;;;;;5045250;28;20106;-71
2023/12/21 00:19:09;;;;;;;35.92;3.25;;;10.00;99.90;;;;;;5047056;28;20198;-71
2023/12/21 00:21:34;;;;;;;33.47;4.13;;;9.80;99.90;;;;;;5030692;28;20036;-72
2023/12/21 00:24:00;;;;;;;29.73;3.45;;;10.00;99.90;;;;;;5046189;28;20094;-72
2023/12/21 00:26:26;;;;;;;29.02;3.45;;;9.70;99.90;;;;;;5031116;28;20776;-73
2023/12/21 00:28:51;;;;;;;27.33;3.08;;;9.80;99.90;;;;;;5031578;28;20054;-71
2023/12/21 00:31:17;;;;;;;24.25;3.25;;;9.80;99.90;;;;;;5030333;28;20045;-71
2023/12/21 00:33:43;;;;;;;26.35;3.38;;;9.70;99.90;;;;;;5047471;28;20075;-72
2023/12/21 00:36:15;;;;;;;27.25;3.55;;;9.70;99.90;;;;;;5029350;28;20043;-71
2023/12/21 00:38:41;;;;;;;28.00;3.63;;;10.00;99.90;;;;;;5047705;28;20045;-71
2023/12/21 00:41:07;;;;;;;26.65;3.17;;;9.70;99.90;;;;;;5046336;28;20066;-71
2023/12/21 00:43:32;;;;;;;25.83;3.00;;;9.70;99.90;;;;;;5049119;28;20040;-71
2023/12/21 00:45:58;;;;;;;22.42;2.90;;;10.10;99.90;;;;;;5034566;28;20037;-71
2023/12/21 00:48:24;;;;;;;32.72;3.38;;;9.70;99.90;;;;;;5050426;28;20044;-70
2023/12/21 00:50:49;;;;;;;26.55;2.83;;;10.10;99.90;;;;;;5033590;28;20036;-71
2023/12/21 00:53:15;;;;;;;24.15;2.85;;;10.00;99.90;;;;;;5049559;28;20052;-71
2023/12/21 00:55:41;;;;;;;24.88;2.78;;;9.80;99.90;;;;;;5034404;28;20067;-71
2023/12/21 00:58:06;;;;;;;21.63;2.85;;;9.90;99.90;;;;;;5033245;28;20498;-71
2023/12/21 01:00:32;;;;;;;30.05;3.60;;;9.80;99.90;;;;;;5033328;28;20040;-71
2023/12/21 01:02:58;;;;;;;26.05;3.58;;;9.80;99.90;;;;;;5050882;28;20219;-70
2023/12/21 01:05:24;;;;;;;27.30;3.85;;;10.00;99.90;;;;;;5031695;28;20404;-70
2023/12/21 01:07:49;;;;;;;29.60;2.75;;;10.00;99.90;;;;;;5050545;28;20071;-71
2023/12/21 01:10:15;;;;;;;29.58;3.63;;;10.10;99.90;;;;;;5033592;28;20490;-70
2023/12/21 01:12:41;;;;;;;21.50;2.63;;;9.90;99.90;;;;;;5050004;28;20083;-71
2023/12/21 01:15:07;;;;;;;35.58;3.95;;;10.10;99.90;;;;;;5032769;28;20298;-71
2023/12/21 01:17:34;;;;;;;25.75;3.63;;;10.10;99.90;;;;;;5048797;28;20040;-71
2023/12/21 01:19:59;;;;;;;19.98;2.55;;;10.00;99.90;;;;;;5049897;28;20043;-70
2023/12/21 01:22:25;;;;;;;24.40;3.38;;;10.20;99.90;;;;;;5033304;28;20406;-70
2023/12/21 01:24:51;;;;;;;25.25;2.85;;;10.10;99.90;;;;;;5049998;28;20047;-71
2023/12/21 01:27:16;;;;;;;21.08;2.80;;;10.10;99.90;;;;;;5033727;28;20056;-70
2023/12/21 01:29:42;;;;;;;26.15;2.72;;;10.10;99.90;;;;;;5034010;28;20040;-71
2023/12/21 01:32:08;;;;;;;22.98;2.83;;;10.20;99.90;;;;;;5048910;28;20044;-70
2023/12/21 01:34:34;;;;;;;24.58;2.83;;;10.10;99.90;;;;;;5033241;28;20465;-70
2023/12/21 01:36:59;;;;;;;20.83;2.58;;;10.10;99.90;;;;;;5033452;28;20485;-71
2023/12/21 01:39:26;;;;;;;28.80;3.25;;;10.10;99.90;;;;;;5032482;28;20039;-71
2023/12/21 01:41:52;;;;;;;27.70;2.90;;;9.90;99.90;;;;;;5049417;28;20074;-70
2023/12/21 01:44:18;;;;;;;18.80;2.83;;;10.00;99.90;;;;;;5049217;28;20486;-70
2023/12/21 01:46:44;;;;;;;28.73;3.00;;;10.00;99.90;;;;;;5048869;28;20050;-71
2023/12/21 01:49:10;;;;;;;21.10;2.47;;;10.00;99.90;;;;;;5048379;28;20051;-71
2023/12/21 01:51:36;;;;;;;19.17;2.42;;;10.20;99.90;;;;;;5007421;28;20075;-71
2023/12/21 01:54:03;;;;;;;22.08;2.70;;;10.10;99.90;;;;;;5047477;28;20044;-71
2023/12/21 01:56:32;;;;;;;24.45;3.15;;;10.10;99.90;;;;;;5031410;28;20062;-71
2023/12/21 01:58:59;;;;;;;22.17;2.65;;;10.10;99.90;;;;;;5049452;28;20044;-71
2023/12/21 02:01:25;;;;;;;19.80;2.45;;;10.10;99.90;;;;;;5049114;28;20395;-70
2023/12/21 02:03:53;;;;;;;15.65;2.17;;;9.90;99.90;;;;;;5031977;28;20101;-71
2023/12/21 02:06:18;;;;;;;25.15;3.90;;;9.80;99.90;;;;;;5049059;28;20047;-71
2023/12/21 02:08:44;;;;;;;24.67;2.92;;;9.80;99.90;;;;;;5037447;28;20417;-70
2023/12/21 02:11:10;;;;;;;17.73;2.78;;;9.70;99.90;;;;;;5048287;28;20036;-71
2023/12/21 02:13:36;;;;;;;23.58;2.78;;;9.90;99.90;;;;;;5048622;28;20052;-70
2023/12/21 02:16:26;;;;;;;17.83;2.60;;;10.00;99.90;;;;;;5030777;28;20126;-70
2023/12/21 02:18:52;;;;;;;23.65;3.05;;;9.70;99.90;;;;;;5017461;28;20331;-70
2023/12/21 02:21:18;;;;;;;28.33;3.67;;;9.70;99.90;;;;;;5031103;28;20094;-71
2023/12/21 02:23:46;;;;;;;24.98;3.35;;;9.70;99.90;;;;;;5033113;28;20048;-71
2023/12/21 02:26:13;;;;;;;24.80;3.50;;;9.60;99.90;;;;;;5048254;28;20040;-71
2023/12/21 02:28:39;;;;;;;29.67;4.40;;;9.90;99.90;;;;;;5048967;28;20049;-72
2023/12/21 02:31:04;;;;;;;18.65;3.05;;;9.80;99.90;;;;;;5020518;28;20047;-71
2023/12/21 02:33:30;;;;;;;26.08;3.83;;;9.80;99.90;;;;;;5046941;28;20048;-72
2023/12/21 02:35:56;;;;;;;26.38;4.95;;;9.90;99.90;;;;;;5030189;28;20082;-71
2023/12/21 02:38:23;;;;;;;22.42;4.05;;;9.70;99.90;;;;;;5015337;28;20051;-71
2023/12/21 02:40:49;;;;;;;25.63;4.57;;;9.90;99.90;;;;;;5020252;28;20418;-71
2023/12/21 02:43:15;;;;;;;23.10;3.78;;;9.70;99.90;;;;;;5046776;28;20044;-72
2023/12/21 02:45:40;;;;;;;24.10;4.70;;;9.70;99.90;;;;;;5047814;28;20048;-71
2023/12/21 02:48:06;;;;;;;18.70;3.17;;;9.60;99.90;;;;;;5031293;28;20044;-71
2023/12/21 02:50:32;;;;;;;13.82;3.08;;;9.90;99.90;;;;;;5029413;28;20047;-71
2023/12/21 02:52:58;;;;;;;27.60;4.30;;;9.90;99.90;;;;;;5020214;28;20325;-71
2023/12/21 02:55:23;;;;;;;20.73;3.78;;;9.80;99.90;;;;;;5047568;28;20041;-71
2023/12/21 02:57:49;;;;;;;22.48;4.28;;;9.80;99.90;;;;;;5046503;28;20632;-72
2023/12/21 03:00:15;;;;;;;16.13;3.97;;;9.80;99.90;;;;;;5015679;28;20605;-71
2023/12/21 03:02:41;;;;;;;21.73;4.32;;;9.90;99.90;;;;;;5047301;28;20323;-71
2023/12/21 03:05:07;;;;;;;26.70;5.40;;;9.70;99.90;;;;;;5047658;28;20257;-71
2023/12/21 03:07:32;;;;;;;13.43;3.60;;;9.60;99.90;;;;;;5048766;28;20044;-72
2023/12/21 03:09:58;;;;;;;27.15;5.10;;;10.00;99.90;;;;;;5046392;28;20552;-71
2023/12/21 03:12:24;;;;;;;27.45;5.05;;;9.90;99.90;;;;;;5029943;28;20087;-72
2023/12/21 03:14:49;;;;;;;17.17;4.13;;;10.00;99.90;;;;;;5047324;28;20036;-71
2023/12/21 03:17:15;;;;;;;21.63;4.60;;;9.60;99.90;;;;;;5048082;28;20383;-71
2023/12/21 03:19:40;;;;;;;19.88;5.00;;;9.70;99.90;;;;;;5047763;28;20036;-71
2023/12/21 03:22:07;;;;;;;23.15;4.72;;;9.80;99.90;;;;;;5047766;28;20040;-71
2023/12/21 03:24:33;;;;;;;18.17;4.18;;;9.80;99.90;;;;;;5047420;28;20048;-72
2023/12/21 03:26:59;;;;;;;17.35;4.07;;;9.70;99.90;;;;;;5046971;28;20505;-71
2023/12/21 03:29:24;;;;;;;15.07;3.75;;;9.70;99.90;;;;;;5047934;28;20131;-71
2023/12/21 03:31:52;;;;;;;15.10;3.33;;;10.00;99.90;;;;;;5047323;28;20036;-71
2023/12/21 03:34:18;;;;;;;18.92;4.15;;;9.80;99.90;;;;;;5046285;28;20053;-72
2023/12/21 03:36:44;;;;;;;16.13;3.92;;;10.00;99.90;;;;;;5046753;28;20044;-71
2023/12/21 03:39:09;;;;;;;14.13;3.53;;;10.00;99.90;;;;;;5032278;28;20211;-71
2023/12/21 03:41:35;;;;;;;17.48;3.95;;;10.00;99.90;;;;;;5047099;28;20041;-71
2023/12/21 03:44:01;;;;;;;17.42;3.85;;;10.10;99.90;;;;;;5030152;28;20052;-72
2023/12/21 03:46:26;;;;;;;16.13;4.47;;;10.10;99.90;;;;;;5013359;28;20076;-71
2023/12/21 03:48:52;;;;;;;13.52;3.40;;;9.90;99.90;;;;;;5046417;28;20044;-71
2023/12/21 03:51:18;;;;;;;21.33;5.50;;;9.80;99.90;;;;;;5046535;28;20058;-72
2023/12/21 03:53:43;;;;;;;18.45;5.13;;;9.90;99.90;;;;;;5047489;28;20130;-71
2023/12/21 03:56:09;;;;;;;18.63;4.18;;;10.00;99.90;;;;;;5047748;28;20348;-71
2023/12/21 03:58:37;;;;;;;18.58;4.63;;;9.70;99.90;;;;;;5047358;28;20040;-72
2023/12/21 04:01:03;;;;;;;18.73;4.88;;;9.70;99.90;;;;;;5017202;28;20284;-71
2023/12/21 04:03:29;;;;;;;24.95;6.22;;;9.70;99.90;;;;;;5047016;28;20494;-71
2023/12/21 04:05:55;;;;;;;19.77;5.47;;;10.00;99.90;;;;;;5030555;28;20098;-71
2023/12/21 04:08:22;;;;;;;17.50;4.28;;;9.90;99.90;;;;;;5031110;28;20127;-71
2023/12/21 04:10:49;;;;;;;24.25;6.25;;;10.10;99.90;;;;;;5045926;28;20036;-72
2023/12/21 04:13:15;;;;;;;23.70;6.03;;;9.70;99.90;;;;;;5030180;28;20041;-72
2023/12/21 04:15:40;;;;;;;20.50;4.90;;;9.70;99.90;;;;;;5030681;28;20040;-72
2023/12/21 04:18:06;;;;;;;27.48;6.03;;;9.70;99.90;;;;;;5048635;28;20396;-71
2023/12/21 04:20:32;;;;;;;19.63;4.68;;;10.00;99.90;;;;;;5050712;28;20048;-72
2023/12/21 04:22:57;;;;;;;20.52;4.03;;;10.00;99.90;;;;;;5033294;28;20075;-71
2023/12/21 04:25:23;;;;;;;19.85;5.05;;;9.70;99.90;;;;;;5050245;28;20044;-71
2023/12/21 04:27:49;;;;;;;18.92;4.97;;;9.80;99.90;;;;;;5050160;28;20814;-71
2023/12/21 04:30:14;;;;;;;19.88;4.43;;;10.10;99.90;;;;;;5050449;28;20055;-70
2023/12/21 04:32:41;;;;;;;24.42;4.90;;;9.60;99.90;;;;;;5050502;28;20131;-71
2023/12/21 04:35:09;;;;;;;13.52;3.45;;;9.60;99.90;;;;;;5034348;28;20047;-70
2023/12/21 04:37:35;;;;;;;21.77;4.40;;;9.90;99.90;;;;;;5050508;28;20037;-71
2023/12/21 04:40:03;;;;;;;23.00;5.85;;;10.00;99.90;;;;;;5049373;28;20581;-70
2023/12/21 04:42:30;;;;;;;15.43;3.78;;;10.00;99.90;;;;;;5033017;28;20215;-71
2023/12/21 04:44:56;;;;;;;21.52;5.10;;;10.00;99.90;;;;;;5051255;28;20465;-70
2023/12/21 04:47:21;;;;;;;24.05;5.63;;;9.60;99.90;;;;;;5032854;28;20127;-71
2023/12/21 04:49:47;;;;;;;24.63;5.40;;;10.00;99.90;;;;;;5033535;28;20473;-71
2023/12/21 04:52:13;;;;;;;20.40;4.65;;;10.00;99.90;;;;;;5050283;28;20048;-72
2023/12/21 04:54:39;;;;;;;24.10;4.55;;;9.60;99.90;;;;;;5033912;28;20043;-70
2023/12/21 04:57:05;;;;;;;27.77;5.72;;;9.60;99.90;;;;;;5049349;28;20056;-70
2023/12/21 04:59:30;;;;;;;25.52;5.32;;;9.60;99.90;;;;;;5049476;28;20528;-71
2023/12/21 05:01:56;;;;;;;23.50;4.53;;;10.00;99.90;;;;;;5048995;28;20032;-71
2023/12/21 05:04:23;;;;;;;23.10;5.32;;;10.00;99.90;;;;;;5033189;28;20041;-70
2023/12/21 05:06:48;;;;;;;27.08;5.82;;;10.00;99.90;;;;;;5034163;28;20040;-71
2023/12/21 05:09:14;;;;;;;23.13;5.95;;;9.60;99.90;;;;;;5032606;28;20105;-70
2023/12/21 05:11:40;;;;;;;26.83;5.13;;;9.90;99.90;;;;;;5032473;28;20060;-71
2023/12/21 05:14:05;;;;;;;29.05;6.15;;;9.70;99.90;;;;;;5049063;28;20611;-71
2023/12/21 05:16:31;;;;;;;21.35;5.18;;;9.60;99.90;;;;;;5050124;28;20102;-70
2023/12/21 05:18:57;;;;;;;15.52;4.05;;;10.10;99.90;;;;;;5032905;28;20445;-71
2023/12/21 05:21:23;;;;;;;24.35;4.88;;;9.60;99.90;;;;;;5049570;28;20040;-71
2023/12/21 05:23:49;;;;;;;18.40;4.72;;;10.10;99.90;;;;;;5049737;28;20090;-71
2023/12/21 05:26:15;;;;;;;16.77;3.03;;;9.60;99.90;;;;;;5049046;28;20119;-70
2023/12/21 05:28:42;;;;;;;14.23;2.80;;;9.60;99.90;;;;;;5048243;28;20041;-71
2023/12/21 05:31:08;;;;;;;17.70;3.25;;;9.70;99.90;;;;;;5049220;28;20143;-70
2023/12/21 05:33:35;;;;;;;16.27;3.95;;;10.10;99.90;;;;;;5050009;28;20578;-71
2023/12/21 05:36:02;;;;;;;13.73;3.17;;;9.80;99.90;;;;;;5033467;28;20047;-71
2023/12/21 05:38:28;;;;;;;11.27;2.65;;;10.10;99.90;;;;;;5049132;28;20086;-70
2023/12/21 05:40:54;;;;;;;11.55;2.67;;;9.70;99.90;;;;;;5049592;28;20401;-70
2023/12/21 05:43:19;;;;;;;14.05;3.03;;;9.60;99.90;;;;;;5048077;28;20040;-70
2023/12/21 05:45:45;;;;;;;19.48;3.38;;;9.90;99.90;;;;;;5048957;28;20044;-70
2023/12/21 05:48:11;;;;;;;21.55;3.67;;;9.60;99.90;;;;;;5005247;28;20052;-71
2023/12/21 05:50:37;;;;;;;15.75;4.20;;;10.10;99.90;;;;;;5032766;28;20140;-70
2023/12/21 05:53:03;;;;;;;16.83;2.70;;;10.00;99.90;;;;;;5048042;28;20044;-71
2023/12/21 05:55:29;;;;;;;17.92;3.78;;;10.00;99.90;;;;;;5047546;28;20202;-72
2023/12/21 05:57:55;;;;;;;14.60;3.20;;;9.60;99.90;;;;;;5032287;28;20059;-70
2023/12/21 06:00:20;;;;;;;10.40;1.95;;;9.80;99.90;;;;;;5047910;28;20686;-71
2023/12/21 06:02:47;;;;;;;12.98;2.20;;;10.00;99.90;;;;;;5048374;28;20047;-70
2023/12/21 06:05:13;;;;;;;14.55;2.53;;;10.10;99.90;;;;;;5047560;28;20295;-70
2023/12/21 06:07:38;;;;;;;18.25;3.55;;;9.60;99.90;;;;;;5049257;28;20048;-71
2023/12/21 06:10:05;;;;;;;15.63;2.83;;;9.60;99.90;;;;;;5002911;28;20053;-70
2023/12/21 06:12:30;;;;;;;15.10;2.97;;;10.00;99.90;;;;;;5031870;28;20076;-70
2023/12/21 06:14:56;;;;;;;14.38;2.40;;;9.90;99.90;;;;;;5032055;28;20127;-70
2023/12/21 06:17:22;;;;;;;11.43;1.83;;;10.20;99.90;;;;;;5031032;28;20044;-70
2023/12/21 06:19:47;;;;;;;10.23;2.13;;;10.10;99.90;;;;;;5032752;28;20043;-71
2023/12/21 06:22:14;;;;;;;17.13;2.35;;;9.60;99.90;;;;;;5066260;28;20238;-70
2023/12/21 06:24:40;;;;;;;17.38;1.98;;;10.30;99.90;;;;;;5031691;28;20509;-71
2023/12/21 06:27:05;;;;;;;12.20;1.98;;;9.80;99.90;;;;;;5021015;28;20036;-69
2023/12/21 06:29:31;;;;;;;21.17;2.80;;;10.20;99.90;;;;;;5014331;28;20117;-70
2023/12/21 06:31:57;;;;;;;10.75;1.95;;;10.40;99.90;;;;;;5031432;28;20432;-70
2023/12/21 06:34:25;;;;;;;14.52;2.40;;;9.90;99.90;;;;;;5048264;28;20357;-70
2023/12/21 06:36:51;;;;;;;14.02;2.63;;;10.40;99.90;;;;;;5049553;28;20134;-71
2023/12/21 06:39:17;;;;;;;16.52;2.88;;;10.50;99.90;;;;;;5046610;28;20079;-71
2023/12/21 06:41:44;;;;;;;16.48;2.75;;;10.40;99.90;;;;;;5044986;28;20865;-70
2023/12/21 06:44:10;;;;;;;24.27;3.15;;;9.50;99.90;;;;;;5046264;28;20993;-71
2023/12/21 06:46:36;;;;;;;15.10;2.45;;;10.10;99.90;;;;;;5028341;28;20777;-71
2023/12/21 06:49:02;;;;;;;20.50;2.92;;;10.40;99.90;;;;;;5019878;28;20037;-71
2023/12/21 06:51:28;;;;;;;19.02;2.92;;;9.40;99.90;;;;;;5036717;28;20051;-70
2023/12/21 06:53:53;;;;;;;11.85;2.08;;;9.40;99.90;;;;;;5019819;28;20033;-70
2023/12/21 06:56:19;;;;;;;19.10;2.58;;;10.10;99.90;;;;;;5047995;28;20052;-71
2023/12/21 06:58:45;;;;;;;16.75;2.55;;;9.60;99.90;;;;;;5031376;28;20488;-70
2023/12/21 07:01:11;;;;;;;6.75;0.98;;;9.50;99.90;;;;;;5031379;28;20437;-70
2023/12/21 07:03:37;;;;;;;12.63;1.38;;;9.70;99.90;;;;;;5031392;28;20056;-70
2023/12/21 07:06:03;;;;;;;12.75;1.25;;;10.50;99.90;;;;;;5031860;28;20123;-71
2023/12/21 07:08:29;;;;;;;8.52;1.20;;;9.80;99.90;;;;;;5031388;28;20040;-69
2023/12/21 07:10:54;;;;;;;4.78;0.90;;;10.60;99.90;;;;;;5014952;28;20048;-70
2023/12/21 07:13:20;;;;;;;13.32;1.35;;;10.40;99.90;;;;;;5029697;28;20063;-70
2023/12/21 07:15:46;;;;;;;5.47;1.00;;;10.50;99.90;;;;;;5030304;28;20043;-70
2023/12/21 07:18:12;;;;;;;5.53;0.77;;;10.60;99.90;;;;;;5048002;28;20043;-70
2023/12/21 07:20:37;;;;;;;5.60;0.63;;;10.50;99.90;;;;;;5031247;28;20514;-70
2023/12/21 07:23:03;;;;;;;6.20;1.08;;;10.40;99.90;;;;;;5047508;28;20047;-70
2023/12/21 07:25:29;;;;;;;5.25;0.82;;;9.50;99.90;;;;;;5047690;28;20052;-70
2023/12/21 07:27:55;;;;;;;5.40;1.20;;;9.40;99.90;;;;;;5047100;28;20079;-70
2023/12/21 07:30:20;;;;;;;8.88;0.90;;;10.70;99.90;;;;;;5031794;28;20044;-70
2023/12/21 07:32:46;;;;;;;3.33;0.40;;;10.20;99.90;;;;;;5045377;28;20524;-69
2023/12/21 07:35:13;;;;;;;5.53;0.90;;;9.40;99.90;;;;;;5047805;28;20071;-70
2023/12/21 07:37:38;;;;;;;4.82;0.95;;;9.90;99.90;;;;;;5047687;28;20055;-70
2023/12/21 07:40:05;;;;;;;9.40;0.90;;;10.50;99.90;;;;;;5030815;28;20396;-70
2023/12/21 07:42:30;;;;;;;6.53;0.75;;;9.60;99.90;;;;;;5029313;28;20036;-70
2023/12/21 07:44:56;;;;;;;5.35;0.77;;;10.00;99.90;;;;;;5047377;28;20462;-71
2023/12/21 07:47:22;;;;;;;6.35;1.08;;;9.60;99.90;;;;;;5047387;28;20301;-71
2023/12/21 07:49:48;;;;;;;7.70;0.75;;;10.20;99.90;;;;;;5030299;28;20044;-70
2023/12/21 07:52:13;;;;;;;3.97;0.40;;;9.50;99.90;;;;;;5017451;28;20045;-70
2023/12/21 07:54:39;;;;;;;3.88;0.60;;;10.50;99.90;;;;;;5034761;28;20044;-70
2023/12/21 07:57:05;;;;;;;4.10;0.40;;;10.60;99.90;;;;;;5051160;28;20557;-72
2023/12/21 07:59:31;;;;;;;6.03;0.50;;;9.70;99.90;;;;;;5051005;28;20459;-72
2023/12/21 08:01:56;;;;;;;6.50;0.70;;;9.90;99.90;;;;;;5040480;28;20043;-72
2023/12/21 08:04:22;;;;;;;7.07;0.63;;;9.50;99.90;;;;;;5038807;28;20041;-71
2023/12/21 08:06:48;;;;;;;10.15;1.50;;;10.60;99.90;;;;;;5052473;28;20052;-71
2023/12/21 08:09:15;;;;;;;8.45;1.08;;;10.60;99.90;;;;;;5034382;28;20043;-73
2023/12/21 08:11:41;;;;;;;7.95;1.05;;;10.70;99.90;;;;;;5049954;28;20251;-71
2023/12/21 08:14:07;;;;;;;8.60;1.30;;;10.30;99.90;;;;;;5048498;28;20505;-72
2023/12/21 08:16:33;;;;;;;8.40;1.10;;;9.80;99.90;;;;;;5048720;28;20163;-71
2023/12/21 08:18:59;;;;;;;10.82;1.15;;;10.10;99.90;;;;;;5034682;28;20514;-72
2023/12/21 08:21:24;;;;;;;14.35;1.63;;;10.60;99.90;;;;;;5034334;28;20032;-71
2023/12/21 08:23:50;;;;;;;14.27;1.60;;;9.70;99.90;;;;;;5018062;28;20036;-71
2023/12/21 08:26:16;;;;;;;16.65;1.77;;;10.60;99.90;;;;;;5049891;28;20095;-71
2023/12/21 08:28:42;;;;;;;13.02;1.52;;;9.70;99.90;;;;;;5033249;28;20115;-70
2023/12/21 08:31:08;;;;;;;11.95;1.45;;;9.80;99.90;;;;;;5049875;28;20225;-70
2023/12/21 08:33:35;;;;;;;19.15;2.55;;;10.00;99.90;;;;;;5032884;28;20535;-70
2023/12/21 08:36:01;;;;;;;17.35;2.40;;;10.50;99.90;;;;;;5015753;28;20044;-71
2023/12/21 08:38:26;;;;;;;19.95;1.77;;;10.80;99.90;;;;;;5019685;28;20060;-71
2023/12/21 08:40:52;;;;;;;17.33;2.38;;;10.20;99.90;;;;;;5033930;28;20044;-70
2023/12/21 08:43:18;;;;;;;27.08;3.28;;;10.60;99.90;;;;;;5049181;28;20044;-70
2023/12/21 08:45:43;;;;;;;26.45;2.78;;;10.70;99.90;;;;;;5050219;28;20040;-72
2023/12/21 08:48:10;;;;;;;24.10;2.92;;;9.80;99.90;;;;;;5034113;28;20044;-71
2023/12/21 08:50:35;;;;;;;21.15;2.85;;;10.90;99.90;;;;;;5034824;28;20055;-71
2023/12/21 08:53:02;;;;;;;19.48;2.47;;;10.00;99.90;;;;;;5050514;28;20048;-71
2023/12/21 08:55:29;;;;;;;25.10;3.00;;;10.90;99.90;;;;;;5050610;28;20179;-71
2023/12/21 08:57:58;;;;;;;25.45;2.65;;;9.80;99.90;;;;;;5032493;28;21091;-71
2023/12/21 09:00:24;;;;;;;22.23;2.97;;;10.10;99.90;;;;;;5049608;28;20064;-71
2023/12/21 09:02:50;;;;;;;13.32;2.03;;;9.80;99.90;;;;;;5033412;28;20235;-71
2023/12/21 09:05:16;;;;;;;14.73;2.30;;;10.30;99.90;;;;;;5033999;28;20607;-71
2023/12/21 09:07:44;;;;;;;26.75;2.90;;;10.20;99.90;;;;;;5029055;28;20047;-71
2023/12/21 09:10:10;;;;;;;21.27;2.83;;;11.00;99.90;;;;;;5048868;28;20051;-71
2023/12/21 09:12:36;;;;;;;17.08;2.03;;;9.90;99.90;;;;;;5048773;28;20306;-72
2023/12/21 09:15:03;;;;;;;22.05;2.67;;;10.00;99.90;;;;;;5048836;28;20514;-71
2023/12/21 09:17:29;;;;;;;19.83;2.42;;;10.00;99.90;;;;;;5032081;28;20143;-71
2023/12/21 09:19:54;;;;;;;14.95;1.70;;;10.00;99.90;;;;;;5033843;28;20040;-71
2023/12/21 09:22:21;;;;;;;17.23;1.75;;;10.00;99.90;;;;;;5049330;28;20041;-72
2023/12/21 09:24:47;;;;;;;19.92;1.65;;;10.50;99.90;;;;;;5047485;28;20491;-72
2023/12/21 09:27:14;;;;;;;23.83;2.47;;;11.10;99.90;;;;;;5050443;28;20344;-71
2023/12/21 09:29:40;;;;;;;19.52;2.45;;;10.50;99.90;;;;;;5034044;28;20059;-72
2023/12/21 09:32:06;;;;;;;12.82;1.70;;;10.10;99.90;;;;;;5049919;28;20534;-71
2023/12/21 09:34:32;;;;;;;20.38;2.20;;;11.10;99.90;;;;;;5050174;28;20485;-71
2023/12/21 09:36:57;;;;;;;14.93;1.63;;;11.10;99.90;;;;;;5018963;28;20135;-71
2023/12/21 09:39:24;;;;;;;19.38;2.03;;;10.80;99.90;;;;;;5049257;28;20190;-71
2023/12/21 09:41:50;;;;;;;13.75;1.63;;;10.20;99.90;;;;;;5050103;28;20426;-72
2023/12/21 09:44:20;;;;;;;17.77;3.30;;;10.40;99.90;;;;;;5049645;28;20483;-71
2023/12/21 09:46:48;;;;;;;13.60;1.80;;;10.60;99.90;;;;;;5049752;28;20399;-71
2023/12/21 09:49:17;;;;;;;19.08;2.03;;;11.20;99.90;;;;;;5049631;28;20044;-70
2023/12/21 09:51:44;;;;;;;17.45;2.08;;;10.50;99.90;;;;;;5048665;28;20041;-71
2023/12/21 09:54:11;;;;;;;20.38;2.38;;;11.10;99.90;;;;;;5038627;28;20321;-71
2023/12/21 09:56:37;;;;;;;19.25;2.00;;;10.20;99.90;;;;;;5033302;28;20032;-71
2023/12/21 09:59:04;;;;;;;19.65;2.45;;;10.20;99.90;;;;;;5048926;28;20571;-71
2023/12/21 10:01:30;;;;;;;16.25;2.35;;;10.40;99.90;;;;;;5048604;28;20674;-72
2023/12/21 10:04:00;;;;;;;20.63;2.38;;;10.20;99.90;;;;;;5033093;28;20059;-70
2023/12/21 10:06:26;;;;;;;18.20;1.70;;;11.10;99.90;;;;;;5032564;28;20036;-71
2023/12/21 10:08:52;;;;;;;19.42;2.75;;;10.40;99.90;;;;;;5033228;28;20482;-72
2023/12/21 10:11:19;;;;;;;16.45;2.03;;;10.20;99.90;;;;;;5018198;28;20051;-71
2023/12/21 10:13:48;;;;;;;17.08;1.92;;;10.80;99.90;;;;;;5048975;28;20592;-71
2023/12/21 10:16:14;;;;;;;27.95;3.15;;;11.20;99.90;;;;;;5065630;28;20425;-71
2023/12/21 10:18:41;;;;;;;17.67;2.47;;;11.10;99.90;;;;;;5019347;28;20182;-71
2023/12/21 10:21:08;;;;;;;20.23;2.78;;;11.40;99.90;;;;;;5040379;28;20077;-71
2023/12/21 10:23:37;;;;;;;23.35;2.83;;;10.60;99.90;;;;;;5031755;28;20028;-73
2023/12/21 10:26:04;;;;;;;20.45;2.47;;;11.00;99.90;;;;;;5047836;28;20055;-72
2023/12/21 10:28:30;;;;;;;16.23;2.13;;;11.40;99.90;;;;;;5031152;28;20047;-71
2023/12/21 10:30:57;;;;;;;19.92;2.72;;;11.30;99.90;;;;;;5030966;28;20337;-69
2023/12/21 10:33:26;;;;;;;20.15;2.67;;;10.40;99.90;;;;;;5048312;28;20437;-70
2023/12/21 10:35:52;;;;;;;20.33;2.42;;;11.40;99.90;;;;;;5017818;28;20131;-71
2023/12/21 10:38:19;;;;;;;17.73;2.30;;;11.30;99.90;;;;;;5034666;28;20048;-71
2023/12/21 10:40:48;;;;;;;24.80;3.42;;;10.60;99.90;;;;;;5047127;28;20060;-72
2023/12/21 10:43:17;;;;;;;21.08;2.70;;;11.40;99.90;;;;;;5032568;28;20047;-72
2023/12/21 10:45:47;;;;;;;23.13;2.58;;;10.80;99.90;;;;;;5049312;28;20051;-71
2023/12/21 10:48:16;;;;;;;20.33;2.65;;;10.80;99.90;;;;;;5032988;28;20048;-71
2023/12/21 10:50:46;;;;;;;22.35;2.83;;;11.30;99.90;;;;;;5048933;28;20178;-72
2023/12/21 10:53:13;;;;;;;22.35;2.90;;;10.70;99.90;;;;;;5034247;28;20451;-71
2023/12/21 10:55:41;;;;;;;19.90;2.83;;;10.40;99.90;;;;;;5022142;28;20101;-71
2023/12/21 10:58:07;;;;;;;25.67;3.35;;;10.20;99.90;;;;;;5016627;28;20055;-71
2023/12/21 11:00:33;;;;;;;34.90;3.45;;;11.20;99.90;;;;;;5047510;28;20265;-70
2023/12/21 11:03:00;;;;;;;30.60;3.15;;;11.10;99.90;;;;;;5047464;28;20101;-71
2023/12/21 11:05:27;;;;;;;26.10;3.00;;;10.20;99.90;;;;;;5032474;28;20047;-72
2023/12/21 11:07:55;;;;;;;29.48;4.20;;;10.30;99.90;;;;;;5018392;28;20246;-72
2023/12/21 11:10:22;;;;;;;30.88;3.92;;;10.30;99.90;;;;;;5030889;28;20095;-73
2023/12/21 11:12:49;;;;;;;24.70;3.28;;;10.20;99.90;;;;;;5029452;28;20037;-70
2023/12/21 11:15:20;;;;;;;28.63;3.95;;;11.20;99.90;;;;;;5047748;28;20055;-71
2023/12/21 11:17:54;;;;;;;27.88;4.10;;;11.20;99.90;;;;;;5047441;28;20076;-71
2023/12/21 11:20:28;;;;;;;30.58;3.58;;;11.10;99.90;;;;;;5047828;28;20136;-70
2023/12/21 11:22:55;;;;;;;29.27;3.53;;;11.30;99.90;;;;;;5045986;28;20040;-71
2023/12/21 11:25:22;;;;;;;21.50;2.88;;;10.70;99.90;;;;;;5031593;28;20052;-71
2023/12/21 11:27:51;;;;;;;18.58;2.53;;;10.60;99.90;;;;;;5047962;28;20039;-70
2023/12/21 11:30:18;;;;;;;17.38;2.58;;;10.60;99.90;;;;;;5047935;28;20263;-70
2023/12/21 11:32:46;;;;;;;19.73;3.28;;;10.90;99.90;;;;;;5048355;28;20044;-69
2023/12/21 11:35:20;;;;;;;19.45;3.35;;;10.70;99.90;;;;;;5049404;28;20068;-70
2023/12/21 11:37:54;;;;;;;31.25;4.60;;;10.90;99.90;;;;;;5021422;28;20093;-70
2023/12/21 11:40:21;;;;;;;25.50;4.25;;;10.60;99.90;;;;;;5048706;28;20128;-69
2023/12/21 11:42:48;;;;;;;20.42;3.53;;;10.80;99.90;;;;;;5032348;28;20449;-69
2023/12/21 11:45:34;;;;;;;29.67;4.65;;;11.00;99.90;;;;;;5048446;28;20047;-71
2023/12/21 11:48:04;;;;;;;28.42;3.72;;;11.00;99.90;;;;;;5049434;28;20166;-69
2023/12/21 11:50:35;;;;;;;26.48;3.97;;;10.80;99.90;;;;;;5049859;28;20048;-69
2023/12/21 11:53:10;;;;;;;28.02;3.75;;;10.70;99.90;;;;;;5049754;28;20676;-69
2023/12/21 11:55:41;;;;;;;24.00;3.70;;;10.70;99.90;;;;;;5031155;28;20036;-69
2023/12/21 11:58:09;;;;;;;25.60;3.88;;;11.00;99.90;;;;;;5064452;28;20055;-69
2023/12/21 12:00:50;;;;;;;26.00;4.75;;;10.80;99.90;;;;;;5048187;28;20083;-70
2023/12/21 12:03:21;;;;;;;23.08;3.38;;;11.00;99.90;;;;;;5064301;28;20044;-69
2023/12/21 12:05:53;;;;;;;22.92;3.20;;;10.80;99.90;;;;;;5047408;28;20595;-68
2023/12/21 12:08:23;;;;;;;23.92;4.32;;;10.70;99.90;;;;;;5046487;28;20157;-72
2023/12/21 12:10:53;;;;;;;26.85;3.85;;;10.90;99.90;;;;;;5047675;28;20217;-69
2023/12/21 12:13:21;;;;;;;27.05;4.25;;;10.90;99.90;;;;;;5031893;28;20730;-68
2023/12/21 12:15:48;;;;;;;25.42;4.20;;;10.70;99.90;;;;;;5048862;28;20043;-69
2023/12/21 12:18:14;;;;;;;38.53;5.20;;;10.80;99.90;;;;;;5047965;28;20327;-68
2023/12/21 12:20:44;;;;;;;16.98;2.03;;;10.60;99.90;;;;;;5048471;28;20040;-71
2023/12/21 12:23:11;;;;;;;14.93;1.85;;;9.10;99.90;;;;;;5048057;28;20068;-71
2023/12/21 12:25:36;;;;;;;13.73;1.50;;;7.90;99.90;;;;;;5048149;28;20040;-72
2023/12/21 12:28:06;;;;;;;14.18;1.30;;;7.30;99.90;;;;;;5047621;28;20651;-70
2023/12/21 12:30:32;;;;;;;21.70;1.83;;;7.50;99.90;;;;;;5030643;28;20054;-70
2023/12/21 12:33:02;;;;;;;19.02;1.83;;;8.00;99.90;;;;;;5030891;28;20040;-72
2023/12/21 12:35:30;;;;;;;19.80;1.92;;;8.40;99.90;;;;;;5029740;28;20114;-70
2023/12/21 12:37:56;;;;;;;19.65;1.80;;;7.40;99.90;;;;;;5064876;28;20051;-70